sensor_id;sensor_type;location;lat;lon;timestamp;pressure;altitude;pressure_sealevel;temperature;humidity
6835;BME280;3455;42.150;24.734;2023-02-28T00:02:26;66765.00;;;13.79;60.67
6835;BME280;3455;42.150;24.734;2023-02-28T00:04:52;66745.78;;;13.80;60.57
6835;BME280;3455;42.150;24.734;2023-02-28T00:07:27;66769.25;;;14.14;59.61
6835;BME280;3455;42.150;24.734;2023-02-28T00:09:54;66765.00;;;13.79;60.26
6835;BME280;3455;42.150;24.734;2023-02-28T00:12:21;66766.03;;;14.09;59.48
6835;BME280;3455;42.150;24.734;2023-02-28T00:14:48;66748.69;;;13.94;59.86
6835;BME280;3455;42.150;24.734;2023-02-28T00:17:15;66755.72;;;13.82;60.30
6835;BME280;3455;42.150;24.734;2023-02-28T00:19:43;66756.78;;;13.67;60.99
6835;BME280;3455;42.150;24.734;2023-02-28T00:22:10;66695.84;;;13.38;61.28
6835;BME280;3455;42.150;24.734;2023-02-28T00:24:38;66774.97;;;13.70;61.27
6835;BME280;3455;42.150;24.734;2023-02-28T00:27:04;66783.06;;;13.77;60.85
6835;BME280;3455;42.150;24.734;2023-02-28T00:29:31;66765.13;;;13.83;60.52
6835;BME280;3455;42.150;24.734;2023-02-28T00:31:58;66773.78;;;13.91;60.17
6835;BME280;3455;42.150;24.734;2023-02-28T00:34:25;66732.59;;;13.73;60.83
6835;BME280;3455;42.150;24.734;2023-02-28T00:36:51;66725.56;;;13.62;60.98
6835;BME280;3455;42.150;24.734;2023-02-28T00:39:18;66722.88;;;13.46;61.83
6835;BME280;3455;42.150;24.734;2023-02-28T00:41:46;66732.38;;;13.52;62.02
6835;BME280;3455;42.150;24.734;2023-02-28T00:44:13;66688.88;;;13.20;62.78
6835;BME280;3455;42.150;24.734;2023-02-28T00:46:39;66748.72;;;13.60;61.86
6835;BME280;3455;42.150;24.734;2023-02-28T00:49:06;66678.78;;;13.70;60.98
6835;BME280;3455;42.150;24.734;2023-02-28T00:51:33;66737.22;;;13.77;60.91
6835;BME280;3455;42.150;24.734;2023-02-28T00:53:59;66755.97;;;13.80;60.64
6835;BME280;3455;42.150;24.734;2023-02-28T00:56:26;66738.16;;;13.69;60.75
6835;BME280;3455;42.150;24.734;2023-02-28T00:58:54;66738.84;;;13.62;61.33
6835;BME280;3455;42.150;24.734;2023-02-28T01:01:21;66751.34;;;13.76;61.22
6835;BME280;3455;42.150;24.734;2023-02-28T01:03:47;66734.88;;;13.86;60.61
6835;BME280;3455;42.150;24.734;2023-02-28T01:06:14;66838.66;;;14.04;59.95
6835;BME280;3455;42.150;24.734;2023-02-28T01:08:41;66787.44;;;14.17;59.44
6835;BME280;3455;42.150;24.734;2023-02-28T01:11:09;66851.38;;;14.37;58.71
6835;BME280;3455;42.150;24.734;2023-02-28T01:13:36;66803.63;;;14.31;58.71
6835;BME280;3455;42.150;24.734;2023-02-28T01:16:05;66811.72;;;14.38;59.06
6835;BME280;3455;42.150;24.734;2023-02-28T01:18:32;66830.81;;;14.55;58.30
6835;BME280;3455;42.150;24.734;2023-02-28T01:21:03;66796.38;;;14.11;59.62
6835;BME280;3455;42.150;24.734;2023-02-28T01:23:30;66755.97;;;13.80;60.73
6835;BME280;3455;42.150;24.734;2023-02-28T01:25:57;66743.94;;;13.85;60.68
6835;BME280;3455;42.150;24.734;2023-02-28T01:28:24;66802.13;;;14.16;59.53
6835;BME280;3455;42.150;24.734;2023-02-28T01:30:51;66823.56;;;14.35;59.16
6835;BME280;3455;42.150;24.734;2023-02-28T01:33:19;66865.84;;;14.50;58.55
6835;BME280;3455;42.150;24.734;2023-02-28T01:35:45;66849.06;;;14.35;58.50
6835;BME280;3455;42.150;24.734;2023-02-28T01:38:12;66847.88;;;14.34;58.85
6835;BME280;3455;42.150;24.734;2023-02-28T01:40:39;66783.75;;;14.05;59.77
6835;BME280;3455;42.150;24.734;2023-02-28T01:43:19;66867.56;;;14.52;58.94
6835;BME280;3455;42.150;24.734;2023-02-28T01:45:46;66869.31;;;14.76;57.47
6835;BME280;3455;42.150;24.734;2023-02-28T01:48:13;66862.81;;;14.88;57.24
6835;BME280;3455;42.150;24.734;2023-02-28T01:50:43;66860.63;;;14.68;58.47
6835;BME280;3455;42.150;24.734;2023-02-28T01:53:14;66929.69;;;15.00;57.27
6835;BME280;3455;42.150;24.734;2023-02-28T01:55:46;66915.16;;;15.21;56.69
6835;BME280;3455;42.150;24.734;2023-02-28T01:58:13;66912.38;;;15.23;56.36
6835;BME280;3455;42.150;24.734;2023-02-28T02:00:40;66971.88;;;15.44;55.88
6835;BME280;3455;42.150;24.734;2023-02-28T02:03:09;66939.69;;;15.52;55.69
6835;BME280;3455;42.150;24.734;2023-02-28T02:05:38;66912.69;;;15.37;55.94
6835;BME280;3455;42.150;24.734;2023-02-28T02:08:10;66934.41;;;15.43;56.09
6835;BME280;3455;42.150;24.734;2023-02-28T02:10:41;66940.06;;;15.43;55.85
6835;BME280;3455;42.150;24.734;2023-02-28T02:16:26;66987.50;;;15.81;54.16
6835;BME280;3455;42.150;24.734;2023-02-28T02:19:07;66954.44;;;15.51;54.36
6835;BME280;3455;42.150;24.734;2023-02-28T02:22:09;66936.13;;;15.44;54.02
6835;BME280;3455;42.150;24.734;2023-02-28T02:25:04;66933.78;;;15.42;54.04
6835;BME280;3455;42.150;24.734;2023-02-28T02:30:59;66973.03;;;15.45;53.59
6835;BME280;3455;42.150;24.734;2023-02-28T02:34:08;66905.22;;;15.08;54.85
6835;BME280;3455;42.150;24.734;2023-02-28T02:36:45;66920.78;;;14.94;55.58
6835;BME280;3455;42.150;24.734;2023-02-28T02:39:18;66911.63;;;14.91;56.46
6835;BME280;3455;42.150;24.734;2023-02-28T02:41:48;66906.75;;;14.77;57.46
6835;BME280;3455;42.150;24.734;2023-02-28T02:44:21;66849.84;;;14.68;57.57
6835;BME280;3455;42.150;24.734;2023-02-28T02:46:51;66814.03;;;14.40;58.66
6835;BME280;3455;42.150;24.734;2023-02-28T02:49:24;66778.06;;;14.04;60.06
6835;BME280;3455;42.150;24.734;2023-02-28T02:51:53;66777.50;;;14.04;61.09
6835;BME280;3455;42.150;24.734;2023-02-28T02:54:23;66781.41;;;14.02;61.21
6835;BME280;3455;42.150;24.734;2023-02-28T02:56:56;66810.84;;;14.01;61.71
6835;BME280;3455;42.150;24.734;2023-02-28T02:59:26;66781.34;;;13.75;62.36
6835;BME280;3455;42.150;24.734;2023-02-28T03:01:56;66822.19;;;14.25;61.18
6835;BME280;3455;42.150;24.734;2023-02-28T03:04:28;66825.66;;;14.28;61.37
6835;BME280;3455;42.150;24.734;2023-02-28T03:06:57;66817.78;;;14.08;62.21
6835;BME280;3455;42.150;24.734;2023-02-28T03:09:25;66750.78;;;13.64;64.52
6835;BME280;3455;42.150;24.734;2023-02-28T03:11:54;66754.34;;;13.83;64.66
6835;BME280;3455;42.150;24.734;2023-02-28T03:14:33;66823.59;;;14.13;64.06
6835;BME280;3455;42.150;24.734;2023-02-28T03:17:18;66831.69;;;14.20;63.99
6835;BME280;3455;42.150;24.734;2023-02-28T03:19:55;66807.84;;;13.94;64.65
6835;BME280;3455;42.150;24.734;2023-02-28T03:22:45;66806.81;;;13.98;65.42
6835;BME280;3455;42.150;24.734;2023-02-28T03:25:21;66820.09;;;14.10;64.82
6835;BME280;3455;42.150;24.734;2023-02-28T03:27:57;66784.22;;;13.78;65.72
6835;BME280;3455;42.150;24.734;2023-02-28T03:30:33;66840.97;;;14.17;65.09
6835;BME280;3455;42.150;24.734;2023-02-28T03:33:05;66878.94;;;14.30;64.73
6835;BME280;3455;42.150;24.734;2023-02-28T03:35:38;66833.88;;;14.40;64.20
6835;BME280;3455;42.150;24.734;2023-02-28T03:38:10;66844.41;;;14.43;64.06
6835;BME280;3455;42.150;24.734;2023-02-28T03:40:43;66854.25;;;14.40;64.10
6835;BME280;3455;42.150;24.734;2023-02-28T03:43:14;66846.28;;;14.04;65.56
6835;BME280;3455;42.150;24.734;2023-02-28T03:45:45;66788.97;;;13.98;66.13
6835;BME280;3455;42.150;24.734;2023-02-28T03:48:18;66760.16;;;13.77;66.63
6835;BME280;3455;42.150;24.734;2023-02-28T03:50:53;66791.16;;;13.84;66.64
6835;BME280;3455;42.150;24.734;2023-02-28T03:53:25;66764.31;;;13.74;67.27
6835;BME280;3455;42.150;24.734;2023-02-28T03:55:55;66769.41;;;13.51;68.05
6835;BME280;3455;42.150;24.734;2023-02-28T03:58:28;66706.91;;;13.41;68.49
6835;BME280;3455;42.150;24.734;2023-02-28T04:01:01;66721.50;;;13.36;69.57
6835;BME280;3455;42.150;24.734;2023-02-28T04:03:33;66746.03;;;13.44;68.48
6835;BME280;3455;42.150;24.734;2023-02-28T04:06:03;66734.47;;;13.34;69.33
6835;BME280;3455;42.150;24.734;2023-02-28T04:08:30;66788.03;;;13.50;68.48
6835;BME280;3455;42.150;24.734;2023-02-28T04:11:01;66798.81;;;13.61;68.39
6835;BME280;3455;42.150;24.734;2023-02-28T04:13:29;66759.69;;;13.70;67.74
6835;BME280;3455;42.150;24.734;2023-02-28T04:15:56;66792.56;;;13.49;68.37
6835;BME280;3455;42.150;24.734;2023-02-28T04:18:23;66826.00;;;13.97;66.81
6835;BME280;3455;42.150;24.734;2023-02-28T04:20:50;66807.38;;;13.98;66.17
6835;BME280;3455;42.150;24.734;2023-02-28T04:23:18;66793.47;;;13.86;66.97
6835;BME280;3455;42.150;24.734;2023-02-28T04:25:44;66762.81;;;13.59;67.35
6835;BME280;3455;42.150;24.734;2023-02-28T04:28:11;66755.06;;;13.66;67.32
6835;BME280;3455;42.150;24.734;2023-02-28T04:30:38;66809.22;;;13.82;66.52
6835;BME280;3455;42.150;24.734;2023-02-28T04:33:05;66768.38;;;13.55;67.56
6835;BME280;3455;42.150;24.734;2023-02-28T04:35:32;66770.69;;;13.57;66.93
6835;BME280;3455;42.150;24.734;2023-02-28T04:37:59;66768.94;;;13.78;66.26
6835;BME280;3455;42.150;24.734;2023-02-28T04:40:27;66808.28;;;14.13;65.21
6835;BME280;3455;42.150;24.734;2023-02-28T04:42:54;66773.44;;;13.89;65.58
6835;BME280;3455;42.150;24.734;2023-02-28T04:45:20;66779.59;;;13.51;66.64
6835;BME280;3455;42.150;24.734;2023-02-28T04:47:47;66762.72;;;13.54;66.84
6835;BME280;3455;42.150;24.734;2023-02-28T04:50:14;66737.94;;;13.59;66.39
6835;BME280;3455;42.150;24.734;2023-02-28T04:52:41;66807.47;;;13.80;66.12
6835;BME280;3455;42.150;24.734;2023-02-28T04:55:08;66763.38;;;13.59;66.18
6835;BME280;3455;42.150;24.734;2023-02-28T04:57:37;66748.34;;;13.57;66.53
6835;BME280;3455;42.150;24.734;2023-02-28T05:00:04;66790.25;;;13.47;67.06
6835;BME280;3455;42.150;24.734;2023-02-28T05:02:37;66812.56;;;13.80;65.29
6835;BME280;3455;42.150;24.734;2023-02-28T05:05:04;66817.78;;;14.08;64.48
6835;BME280;3455;42.150;24.734;2023-02-28T05:07:30;66829.97;;;13.96;64.71
6835;BME280;3455;42.150;24.734;2023-02-28T05:09:57;66761.66;;;13.58;65.26
6835;BME280;3455;42.150;24.734;2023-02-28T05:12:24;66727.97;;;13.46;65.54
6835;BME280;3455;42.150;24.734;2023-02-28T05:14:53;66761.06;;;13.46;65.23
6835;BME280;3455;42.150;24.734;2023-02-28T05:17:19;66772.75;;;13.50;65.10
6835;BME280;3455;42.150;24.734;2023-02-28T05:19:46;66720.00;;;13.43;65.44
6835;BME280;3455;42.150;24.734;2023-02-28T05:22:14;66721.50;;;13.36;65.60
6835;BME280;3455;42.150;24.734;2023-02-28T05:24:42;66752.75;;;13.41;65.42
6835;BME280;3455;42.150;24.734;2023-02-28T05:27:09;66774.16;;;13.82;64.20
6835;BME280;3455;42.150;24.734;2023-02-28T05:29:36;66762.91;;;13.52;64.49
6835;BME280;3455;42.150;24.734;2023-02-28T05:32:09;66752.50;;;13.77;63.98
6835;BME280;3455;42.150;24.734;2023-02-28T05:34:37;66751.59;;;13.40;64.89
6835;BME280;3455;42.150;24.734;2023-02-28T05:37:04;66763.28;;;13.55;64.78
6835;BME280;3455;42.150;24.734;2023-02-28T05:39:31;66774.75;;;13.60;64.22
6835;BME280;3455;42.150;24.734;2023-02-28T05:41:57;66770.91;;;13.66;64.06
6835;BME280;3455;42.150;24.734;2023-02-28T05:44:24;66819.78;;;14.07;62.64
6835;BME280;3455;42.150;24.734;2023-02-28T05:46:51;66844.22;;;13.99;62.89
6835;BME280;3455;42.150;24.734;2023-02-28T05:49:19;66812.47;;;13.98;62.94
6835;BME280;3455;42.150;24.734;2023-02-28T05:51:46;66781.09;;;14.00;62.67
6835;BME280;3455;42.150;24.734;2023-02-28T05:54:12;66791.63;;;13.80;63.46
6835;BME280;3455;42.150;24.734;2023-02-28T05:56:39;66794.97;;;14.01;62.85
6835;BME280;3455;42.150;24.734;2023-02-28T05:59:09;66837.47;;;14.25;61.60
6835;BME280;3455;42.150;24.734;2023-02-28T06:01:37;66834.22;;;13.86;62.78
6835;BME280;3455;42.150;24.734;2023-02-28T06:04:07;66812.00;;;14.02;62.46
6835;BME280;3455;42.150;24.734;2023-02-28T06:06:36;66869.88;;;14.54;61.12
6835;BME280;3455;42.150;24.734;2023-02-28T06:09:03;66862.72;;;14.61;60.24
6835;BME280;3455;42.150;24.734;2023-02-28T06:11:30;66834.00;;;14.22;61.46
6835;BME280;3455;42.150;24.734;2023-02-28T06:13:58;66858.78;;;14.39;60.80
6835;BME280;3455;42.150;24.734;2023-02-28T06:16:26;66831.44;;;14.33;61.20
6835;BME280;3455;42.150;24.734;2023-02-28T06:18:53;66805.03;;;14.19;61.22
6835;BME280;3455;42.150;24.734;2023-02-28T06:21:22;66827.84;;;14.03;62.24
6835;BME280;3455;42.150;24.734;2023-02-28T06:23:50;66883.81;;;14.66;60.35
6835;BME280;3455;42.150;24.734;2023-02-28T06:26:18;66907.47;;;14.83;59.60
6835;BME280;3455;42.150;24.734;2023-02-28T06:28:45;66832.84;;;14.21;60.88
6835;BME280;3455;42.150;24.734;2023-02-28T06:31:14;66843.97;;;14.13;61.15
6835;BME280;3455;42.150;24.734;2023-02-28T06:33:43;66842.06;;;14.52;60.64
6835;BME280;3455;42.150;24.734;2023-02-28T06:36:10;66928.88;;;15.02;59.08
6835;BME280;3455;42.150;24.734;2023-02-28T06:38:38;66861.56;;;14.60;59.52
6835;BME280;3455;42.150;24.734;2023-02-28T06:41:07;66824.50;;;14.05;61.73
6835;BME280;3455;42.150;24.734;2023-02-28T06:43:36;66846.97;;;14.20;61.51
6835;BME280;3455;42.150;24.734;2023-02-28T06:46:06;66800.06;;;13.78;62.72
6835;BME280;3455;42.150;24.734;2023-02-28T06:48:32;66749.50;;;13.47;64.01
6835;BME280;3455;42.150;24.734;2023-02-28T06:51:04;66756.19;;;13.89;62.88
6835;BME280;3455;42.150;24.734;2023-02-28T06:53:31;66799.25;;;13.91;62.35
6835;BME280;3455;42.150;24.734;2023-02-28T06:55:58;66854.03;;;14.31;61.22
6835;BME280;3455;42.150;24.734;2023-02-28T06:58:26;66855.53;;;14.34;61.07
6835;BME280;3455;42.150;24.734;2023-02-28T07:00:53;66850.09;;;14.32;60.81
6835;BME280;3455;42.150;24.734;2023-02-28T07:03:19;66892.50;;;14.63;60.01
6835;BME280;3455;42.150;24.734;2023-02-28T07:05:46;66879.75;;;14.63;59.95
6835;BME280;3455;42.150;24.734;2023-02-28T07:08:13;67029.63;;;14.51;60.21
6835;BME280;3455;42.150;24.734;2023-02-28T07:10:40;66869.44;;;14.35;61.10
6835;BME280;3455;42.150;24.734;2023-02-28T07:13:08;66856.00;;;14.41;60.94
6835;BME280;3455;42.150;24.734;2023-02-28T07:15:37;66874.88;;;14.72;59.70
6835;BME280;3455;42.150;24.734;2023-02-28T07:18:03;66871.53;;;14.39;60.77
6835;BME280;3455;42.150;24.734;2023-02-28T07:20:31;66886.13;;;14.68;59.93
6835;BME280;3455;42.150;24.734;2023-02-28T07:22:58;66854.09;;;14.92;59.27
6835;BME280;3455;42.150;24.734;2023-02-28T07:25:26;66891.47;;;14.66;59.57
6835;BME280;3455;42.150;24.734;2023-02-28T07:27:53;66910.91;;;14.86;58.38
6835;BME280;3455;42.150;24.734;2023-02-28T07:30:20;66812.56;;;14.03;61.07
6835;BME280;3455;42.150;24.734;2023-02-28T07:32:48;66832.72;;;14.16;61.37
6835;BME280;3455;42.150;24.734;2023-02-28T07:35:15;66796.47;;;14.16;61.25
6835;BME280;3455;42.150;24.734;2023-02-28T07:37:42;66830.28;;;14.44;60.13
6835;BME280;3455;42.150;24.734;2023-02-28T07:40:10;66894.25;;;14.75;59.34
6835;BME280;3455;42.150;24.734;2023-02-28T07:42:38;66874.31;;;14.26;61.09
6835;BME280;3455;42.150;24.734;2023-02-28T07:45:07;66848.38;;;14.19;61.33
6835;BME280;3455;42.150;24.734;2023-02-28T07:47:35;66867.25;;;14.38;60.37
6835;BME280;3455;42.150;24.734;2023-02-28T07:50:04;66882.88;;;14.74;59.32
6835;BME280;3455;42.150;24.734;2023-02-28T07:52:31;66861.09;;;14.41;59.91
6835;BME280;3455;42.150;24.734;2023-02-28T07:54:58;66833.09;;;14.08;60.71
6835;BME280;3455;42.150;24.734;2023-02-28T07:57:25;66831.69;;;14.20;61.20
6835;BME280;3455;42.150;24.734;2023-02-28T07:59:52;66907.09;;;14.80;59.27
6835;BME280;3455;42.150;24.734;2023-02-28T08:02:18;66902.59;;;14.69;59.32
6835;BME280;3455;42.150;24.734;2023-02-28T08:04:45;66858.19;;;14.16;60.40
6835;BME280;3455;42.150;24.734;2023-02-28T08:07:17;66894.13;;;14.71;59.61
6835;BME280;3455;42.150;24.734;2023-02-28T08:09:44;66813.84;;;14.20;60.87
6835;BME280;3455;42.150;24.734;2023-02-28T08:12:11;66916.50;;;14.82;59.64
6835;BME280;3455;42.150;24.734;2023-02-28T08:14:38;66875.81;;;14.18;61.47
6835;BME280;3455;42.150;24.734;2023-02-28T08:17:06;66848.84;;;14.26;61.27
6835;BME280;3455;42.150;24.734;2023-02-28T08:19:33;66873.38;;;14.57;60.70
6835;BME280;3455;42.150;24.734;2023-02-28T08:21:59;66898.97;;;14.73;59.84
6835;BME280;3455;42.150;24.734;2023-02-28T08:24:27;66882.41;;;14.56;60.19
6835;BME280;3455;42.150;24.734;2023-02-28T08:26:54;66858.78;;;14.39;60.97
6835;BME280;3455;42.150;24.734;2023-02-28T08:29:21;66924.50;;;14.73;60.00
6835;BME280;3455;42.150;24.734;2023-02-28T08:31:48;66977.69;;;15.27;58.15
6835;BME280;3455;42.150;24.734;2023-02-28T08:34:15;66910.78;;;15.04;58.97
6835;BME280;3455;42.150;24.734;2023-02-28T08:36:43;66951.47;;;15.22;58.17
6835;BME280;3455;42.150;24.734;2023-02-28T08:39:10;67029.28;;;15.95;56.07
6835;BME280;3455;42.150;24.734;2023-02-28T08:41:38;66959.16;;;15.10;58.27
6835;BME280;3455;42.150;24.734;2023-02-28T08:44:06;66962.50;;;15.31;57.71
6835;BME280;3455;42.150;24.734;2023-02-28T08:46:33;66936.59;;;15.40;57.14
6835;BME280;3455;42.150;24.734;2023-02-28T08:49:00;66968.41;;;15.41;57.38
6835;BME280;3455;42.150;24.734;2023-02-28T08:51:28;66938.19;;;15.60;56.53
6835;BME280;3455;42.150;24.734;2023-02-28T08:53:55;67035.84;;;16.21;55.09
6835;BME280;3455;42.150;24.734;2023-02-28T08:56:24;67091.13;;;16.41;54.31
6835;BME280;3455;42.150;24.734;2023-02-28T08:58:54;67092.28;;;16.42;53.70
6835;BME280;3455;42.150;24.734;2023-02-28T09:01:23;67056.53;;;16.19;54.50
6835;BME280;3455;42.150;24.734;2023-02-28T09:03:52;67107.56;;;16.26;53.96
6835;BME280;3455;42.150;24.734;2023-02-28T09:06:20;67035.69;;;15.89;55.19
6835;BME280;3455;42.150;24.734;2023-02-28T09:08:48;67095.56;;;16.35;53.56
6835;BME280;3455;42.150;24.734;2023-02-28T09:11:15;67027.25;;;16.18;54.18
6835;BME280;3455;42.150;24.734;2023-02-28T09:13:44;67051.91;;;16.15;54.34
6835;BME280;3455;42.150;24.734;2023-02-28T09:16:14;67061.66;;;16.19;54.86
6835;BME280;3455;42.150;24.734;2023-02-28T09:18:42;66949.59;;;15.38;56.78
6835;BME280;3455;42.150;24.734;2023-02-28T09:21:11;66943.59;;;15.01;57.83
6835;BME280;3455;42.150;24.734;2023-02-28T09:23:39;66921.66;;;15.31;57.12
6835;BME280;3455;42.150;24.734;2023-02-28T09:26:06;66865.03;;;14.63;56.87
6835;BME280;3455;42.150;24.734;2023-02-28T09:28:33;66952.16;;;15.27;56.98
6835;BME280;3455;42.150;24.734;2023-02-28T09:31:00;66962.59;;;15.36;56.57
6835;BME280;3455;42.150;24.734;2023-02-28T09:33:31;66908.28;;;15.31;57.23
6835;BME280;3455;42.150;24.734;2023-02-28T09:36:00;67015.25;;;15.55;56.41
6835;BME280;3455;42.150;24.734;2023-02-28T09:38:27;66974.53;;;15.60;56.18
6835;BME280;3455;42.150;24.734;2023-02-28T09:40:56;66982.72;;;15.72;56.29
6835;BME280;3455;42.150;24.734;2023-02-28T09:43:26;66972.94;;;15.18;57.10
6835;BME280;3455;42.150;24.734;2023-02-28T09:45:59;66903.00;;;15.10;57.94
6835;BME280;3455;42.150;24.734;2023-02-28T09:48:31;66969.09;;;15.24;57.41
6835;BME280;3455;42.150;24.734;2023-02-28T09:51:03;66958.00;;;15.09;57.90
6835;BME280;3455;42.150;24.734;2023-02-28T09:53:34;66943.50;;;14.96;58.49
6835;BME280;3455;42.150;24.734;2023-02-28T09:56:03;66966.13;;;15.16;58.03
6835;BME280;3455;42.150;24.734;2023-02-28T09:58:41;66952.16;;;15.27;57.62
6835;BME280;3455;42.150;24.734;2023-02-28T10:01:12;66972.47;;;15.45;56.72
6835;BME280;3455;42.150;24.734;2023-02-28T10:03:50;67031.28;;;15.83;56.46
6835;BME280;3455;42.150;24.734;2023-02-28T10:06:26;67005.94;;;15.92;56.11
6835;BME280;3455;42.150;24.734;2023-02-28T10:08:59;67057.88;;;15.80;56.15
6835;BME280;3455;42.150;24.734;2023-02-28T10:11:29;67040.66;;;15.96;55.65
6835;BME280;3455;42.150;24.734;2023-02-28T10:14:01;67016.53;;;15.84;56.26
6835;BME280;3455;42.150;24.734;2023-02-28T10:16:33;66901.97;;;15.03;58.42
6835;BME280;3455;42.150;24.734;2023-02-28T10:19:08;66985.09;;;15.51;57.28
6835;BME280;3455;42.150;24.734;2023-02-28T10:21:41;67031.00;;;16.08;55.88
6835;BME280;3455;42.150;24.734;2023-02-28T10:24:19;67087.16;;;16.42;54.56
6835;BME280;3455;42.150;24.734;2023-02-28T10:26:48;67010.75;;;15.79;56.09
6835;BME280;3455;42.150;24.734;2023-02-28T10:29:15;66957.94;;;15.54;57.12
6835;BME280;3455;42.150;24.734;2023-02-28T10:31:42;66947.50;;;15.45;56.91
6835;BME280;3455;42.150;24.734;2023-02-28T10:34:12;67006.09;;;15.52;56.75
6835;BME280;3455;42.150;24.734;2023-02-28T10:36:39;66995.53;;;15.61;56.49
6835;BME280;3455;42.150;24.734;2023-02-28T10:39:36;67004.03;;;15.48;57.01
6835;BME280;3455;42.150;24.734;2023-02-28T10:42:04;66952.19;;;15.04;58.01
6835;BME280;3455;42.150;24.734;2023-02-28T10:44:31;66900.03;;;14.92;58.66
6835;BME280;3455;42.150;24.734;2023-02-28T10:46:59;66892.56;;;15.01;58.67
6835;BME280;3455;42.150;24.734;2023-02-28T10:49:27;66966.09;;;15.39;57.73
6835;BME280;3455;42.150;24.734;2023-02-28T10:51:57;66980.25;;;15.38;57.45
6835;BME280;3455;42.150;24.734;2023-02-28T10:54:27;67009.91;;;15.69;56.61
6835;BME280;3455;42.150;24.734;2023-02-28T10:57:14;67005.97;;;15.58;56.86
6835;BME280;3455;42.150;24.734;2023-02-28T10:59:43;66977.66;;;15.49;56.81
6835;BME280;3455;42.150;24.734;2023-02-28T11:02:32;66949.56;;;15.49;57.00
6835;BME280;3455;42.150;24.734;2023-02-28T11:05:01;66980.25;;;15.15;58.24
6835;BME280;3455;42.150;24.734;2023-02-28T11:07:28;66937.22;;;14.95;58.13
6835;BME280;3455;42.150;24.734;2023-02-28T11:09:56;66961.19;;;15.48;57.52
6835;BME280;3455;42.150;24.734;2023-02-28T11:12:26;66989.16;;;15.55;56.96
6835;BME280;3455;42.150;24.734;2023-02-28T11:14:58;66938.28;;;15.14;58.33
6835;BME280;3455;42.150;24.734;2023-02-28T11:17:28;66896.34;;;14.68;59.67
6835;BME280;3455;42.150;24.734;2023-02-28T11:19:57;66956.13;;;15.26;58.45
6835;BME280;3455;42.150;24.734;2023-02-28T11:22:31;66913.94;;;14.70;59.58
6835;BME280;3455;42.150;24.734;2023-02-28T11:25:00;66948.50;;;15.03;58.99
6835;BME280;3455;42.150;24.734;2023-02-28T11:27:45;66948.97;;;14.88;59.66
6835;BME280;3455;42.150;24.734;2023-02-28T11:30:29;66899.13;;;14.66;60.66
6835;BME280;3455;42.150;24.734;2023-02-28T11:32:56;66887.94;;;14.97;59.73
6835;BME280;3455;42.150;24.734;2023-02-28T11:35:25;66910.44;;;14.90;60.47
6835;BME280;3455;42.150;24.734;2023-02-28T11:37:54;66866.91;;;14.47;62.50
6835;BME280;3455;42.150;24.734;2023-02-28T11:40:29;66890.75;;;14.50;63.15
6835;BME280;3455;42.150;24.734;2023-02-28T11:43:10;66918.47;;;14.70;63.60
6835;BME280;3455;42.150;24.734;2023-02-28T11:45:49;66888.78;;;14.62;63.98
6835;BME280;3455;42.150;24.734;2023-02-28T11:48:22;66881.50;;;14.64;63.77
6835;BME280;3455;42.150;24.734;2023-02-28T11:51:03;66856.59;;;14.19;65.46
6835;BME280;3455;42.150;24.734;2023-02-28T11:53:50;66855.53;;;14.23;65.54
6835;BME280;3455;42.150;24.734;2023-02-28T11:56:25;66856.00;;;14.41;65.89
6835;BME280;3455;42.150;24.734;2023-02-28T11:59:03;66878.03;;;14.61;65.69
6835;BME280;3455;42.150;24.734;2023-02-28T12:01:48;66831.44;;;14.11;67.03
6835;BME280;3455;42.150;24.734;2023-02-28T12:04:28;66836.19;;;14.19;67.40
6835;BME280;3455;42.150;24.734;2023-02-28T12:07:04;66857.50;;;14.34;67.07
6835;BME280;3455;42.150;24.734;2023-02-28T12:09:46;66889.16;;;14.30;68.18
6835;BME280;3455;42.150;24.734;2023-02-28T12:12:27;66881.50;;;14.41;68.12
6835;BME280;3455;42.150;24.734;2023-02-28T12:15:16;66907.22;;;14.73;66.59
6835;BME280;3455;42.150;24.734;2023-02-28T12:17:57;66842.81;;;14.12;67.11
6835;BME280;3455;42.150;24.734;2023-02-28T12:20:33;66829.59;;;13.82;67.92
6835;BME280;3455;42.150;24.734;2023-02-28T12:23:17;66804.38;;;13.80;68.26
6835;BME280;3455;42.150;24.734;2023-02-28T12:25:59;66836.56;;;13.99;67.91
6835;BME280;3455;42.150;24.734;2023-02-28T12:28:32;66911.38;;;14.36;67.05
6835;BME280;3455;42.150;24.734;2023-02-28T12:31:04;66841.88;;;13.97;67.52
6835;BME280;3455;42.150;24.734;2023-02-28T12:33:35;66818.94;;;14.09;67.54
6835;BME280;3455;42.150;24.734;2023-02-28T12:36:07;66889.25;;;14.12;67.71
6835;BME280;3455;42.150;24.734;2023-02-28T12:38:40;66878.94;;;14.08;67.81
6835;BME280;3455;42.150;24.734;2023-02-28T12:41:13;66863.88;;;14.17;67.34
6835;BME280;3455;42.150;24.734;2023-02-28T12:43:43;66889.25;;;14.24;67.77
6835;BME280;3455;42.150;24.734;2023-02-28T12:46:12;66830.06;;;14.00;68.65
6835;BME280;3455;42.150;24.734;2023-02-28T12:48:44;66821.97;;;13.82;67.98
6835;BME280;3455;42.150;24.734;2023-02-28T12:51:13;66857.06;;;14.15;67.85
6835;BME280;3455;42.150;24.734;2023-02-28T12:53:52;66884.97;;;14.22;67.17
6835;BME280;3455;42.150;24.734;2023-02-28T12:56:30;66847.66;;;14.25;67.44
6835;BME280;3455;42.150;24.734;2023-02-28T12:59:04;66900.16;;;14.40;67.13
6835;BME280;3455;42.150;24.734;2023-02-28T13:01:51;66842.09;;;14.07;67.41
6835;BME280;3455;42.150;24.734;2023-02-28T13:04:57;66870.59;;;14.25;67.23
6835;BME280;3455;42.150;24.734;2023-02-28T13:07:53;66867.13;;;14.33;66.68
6835;BME280;3455;42.150;24.734;2023-02-28T13:10:24;66861.81;;;14.24;67.18
6835;BME280;3455;42.150;24.734;2023-02-28T13:12:54;66846.97;;;13.97;69.23
6835;BME280;3455;42.150;24.734;2023-02-28T13:15:23;66833.09;;;14.08;68.08
6835;BME280;3455;42.150;24.734;2023-02-28T13:17:52;66805.41;;;13.88;69.28
6835;BME280;3455;42.150;24.734;2023-02-28T13:20:21;66826.81;;;13.84;70.08
6835;BME280;3455;42.150;24.734;2023-02-28T13:22:51;66802.75;;;13.94;69.53
6835;BME280;3455;42.150;24.734;2023-02-28T13:31:28;66802.19;;;13.71;70.50
6835;BME280;3455;42.150;24.734;2023-02-28T13:34:06;66785.84;;;13.63;71.50
6835;BME280;3455;42.150;24.734;2023-02-28T13:36:38;66786.53;;;13.69;71.04
6835;BME280;3455;42.150;24.734;2023-02-28T13:39:45;66789.28;;;13.33;73.63
6835;BME280;3455;42.150;24.734;2023-02-28T13:42:30;66787.47;;;13.49;73.04